createdAt,value
2019-03-24T00:02:08.397Z,44.34
2019-03-24T00:04:56.601Z,44.97
2019-03-24T00:07:44.656Z,45.23
2019-03-24T00:10:33.366Z,45.46
2019-03-24T00:13:22.103Z,45.47
2019-03-24T00:16:10.208Z,46.09
2019-03-24T00:18:58.417Z,46.16
2019-03-24T00:21:46.619Z,45.92
2019-03-24T00:24:34.568Z,46.25
2019-03-24T00:27:23.225Z,46.35
2019-03-24T00:30:12.257Z,45.73
2019-03-24T00:33:00.617Z,46.01
2019-03-24T00:35:48.645Z,46.04
2019-03-24T00:38:37.210Z,45.96
2019-03-24T00:41:25.424Z,46.54
2019-03-24T00:44:13.601Z,46.28
2019-03-24T00:47:01.774Z,46.04
2019-03-24T00:49:50.303Z,46.31
2019-03-24T00:52:38.320Z,46.59
2019-03-24T00:55:26.692Z,46.75
2019-03-24T00:58:14.974Z,47.36
2019-03-24T01:01:04.024Z,47.10
2019-03-24T01:03:52.471Z,47.84
2019-03-24T01:06:40.878Z,47.46
2019-03-24T01:09:29.221Z,47.10
2019-03-24T01:12:17.573Z,47.65
2019-03-24T01:15:07.626Z,47.23
2019-03-24T01:17:57.423Z,47.27
2019-03-24T01:20:45.793Z,47.45
2019-03-24T01:23:33.734Z,47.56
2019-03-24T01:26:21.579Z,47.60
2019-03-24T01:29:09.901Z,47.73
2019-03-24T01:31:58.323Z,47.67
2019-03-24T01:34:46.604Z,48.19
2019-03-24T01:37:34.987Z,48.35
2019-03-24T01:40:23.351Z,48.82
2019-03-24T01:43:11.367Z,48.87
2019-03-24T01:46:00.140Z,49.35
2019-03-24T01:48:48.318Z,49.80
2019-03-24T01:51:36.237Z,49.80
2019-03-24T01:54:24.704Z,49.61
2019-03-24T01:57:13.262Z,49.47
2019-03-24T02:00:01.425Z,49.64
2019-03-24T02:02:49.918Z,49.73
2019-03-24T02:05:38.472Z,49.94
2019-03-24T02:08:26.638Z,48.89
2019-03-24T02:11:15.128Z,48.71
2019-03-24T02:14:03.465Z,48.95
2019-03-24T02:16:52.009Z,49.06
2019-03-24T02:19:39.924Z,49.58
2019-03-24T02:22:28.272Z,49.68
2019-03-24T02:25:17.172Z,49.25
2019-03-24T02:28:05.527Z,49.69
2019-03-24T02:30:54.097Z,49.50
2019-03-24T02:33:41.955Z,49.67
2019-03-24T02:36:30.099Z,49.87
2019-03-24T02:39:18.361Z,50.12
2019-03-24T02:42:07.379Z,50.47
2019-03-24T02:44:56.042Z,50.21
2019-03-24T02:47:44.450Z,50.21
2019-03-24T02:50:32.851Z,50.16
2019-03-24T02:53:20.842Z,50.31
2019-03-24T02:56:09.668Z,50.72
2019-03-24T02:58:58.026Z,50.81
2019-03-24T03:01:46.322Z,50.60
2019-03-24T03:04:34.679Z,50.62
2019-03-24T03:07:22.960Z,51.10
2019-03-24T03:10:11.245Z,51.18
2019-03-24T03:12:59.885Z,51.65
2019-03-24T03:15:48.156Z,51.13
2019-03-24T03:18:37.034Z,51.24
2019-03-24T03:21:25.684Z,51.13
2019-03-24T03:24:13.934Z,51.52
2019-03-24T03:27:02.201Z,52.01
2019-03-24T03:29:50.908Z,51.45
2019-03-24T03:32:39.350Z,51.30
2019-03-24T03:35:28.015Z,51.42
2019-03-24T03:38:16.347Z,51.42
2019-03-24T03:41:04.711Z,52.18
2019-03-24T03:43:52.669Z,51.75
2019-03-24T03:46:51.875Z,51.97
2019-03-24T03:49:31.093Z,52.47
2019-03-24T03:52:19.719Z,52.95
2019-03-24T03:55:08.161Z,53.10
2019-03-24T03:57:56.851Z,52.87
2019-03-24T04:00:45.509Z,52.63
2019-03-24T04:03:33.650Z,53.44
2019-03-24T04:06:22.183Z,54.04
2019-03-24T04:09:10.087Z,53.96
2019-03-24T04:11:58.621Z,53.98
2019-03-24T04:14:46.980Z,54.28
2019-03-24T04:17:35.462Z,55.04
2019-03-24T04:20:23.901Z,55.13
2019-03-24T04:23:12.510Z,54.68
2019-03-24T04:26:00.855Z,54.84
2019-03-24T04:28:48.969Z,54.79
2019-03-24T04:31:37.464Z,55.25
2019-03-24T04:34:26.177Z,55.68
2019-03-24T04:37:14.951Z,55.50
2019-03-24T04:40:03.942Z,55.51
2019-03-24T04:42:52.210Z,55.63
2019-03-24T04:45:40.057Z,55.28
2019-03-24T04:48:28.322Z,54.81
2019-03-24T04:51:16.507Z,54.17
2019-03-24T04:54:04.657Z,54.13
2019-03-24T04:56:52.576Z,54.33
2019-03-24T04:59:40.938Z,54.81
2019-03-24T05:02:29.613Z,54.42
2019-03-24T05:05:17.963Z,54.47
2019-03-24T05:08:06.790Z,54.34
2019-03-24T05:10:55.252Z,54.81
2019-03-24T05:13:44.188Z,55.58
2019-03-24T05:16:32.949Z,55.50
2019-03-24T05:19:21.315Z,55.81
2019-03-24T05:22:09.455Z,54.81
2019-03-24T05:24:57.746Z,54.64
2019-03-24T05:27:46.564Z,55.00
2019-03-24T05:30:34.646Z,55.47
2019-03-24T05:33:23.030Z,55.25
2019-03-24T05:36:10.994Z,54.76
2019-03-24T05:39:00.063Z,54.69
2019-03-24T05:41:48.480Z,54.81
2019-03-24T05:44:36.895Z,55.00
2019-03-24T05:47:25.105Z,55.56
2019-03-24T05:50:13.367Z,56.25
2019-03-24T05:53:01.362Z,55.71
2019-03-24T05:55:49.695Z,55.63
2019-03-24T05:58:37.806Z,54.64
2019-03-24T06:01:26.137Z,52.92
2019-03-24T06:04:14.405Z,51.65
2019-03-24T06:07:02.411Z,50.54
2019-03-24T06:09:50.975Z,49.35
2019-03-24T06:12:39.185Z,48.99
2019-03-24T06:15:27.308Z,48.50
2019-03-24T06:18:15.939Z,48.41
2019-03-24T06:21:05.038Z,47.61
2019-03-24T06:23:53.235Z,47.01
2019-03-24T06:26:41.418Z,47.07
2019-03-24T06:29:29.596Z,45.56
2019-03-24T06:32:18.008Z,44.12
2019-03-24T06:35:07.033Z,43.54
2019-03-24T06:37:55.460Z,42.54
2019-03-24T06:40:43.912Z,42.00
2019-03-24T06:43:32.472Z,42.44
2019-03-24T06:46:20.924Z,43.59
2019-03-24T06:49:08.831Z,43.65
2019-03-24T06:51:57.425Z,43.73
2019-03-24T06:54:45.790Z,43.18
2019-03-24T06:57:34.118Z,42.99
2019-03-24T07:00:22.383Z,41.88
2019-03-24T07:03:10.963Z,41.08
2019-03-24T07:05:59.399Z,39.58
2019-03-24T07:08:47.702Z,38.87
2019-03-24T07:11:36.304Z,38.39
2019-03-24T07:14:25.284Z,37.62
2019-03-24T07:17:13.700Z,37.21
2019-03-24T07:20:02.324Z,37.77
2019-03-24T07:22:50.939Z,36.61
2019-03-24T07:25:39.333Z,35.45
2019-03-24T07:28:27.793Z,34.32
2019-03-24T07:31:16.452Z,34.83
2019-03-24T07:34:04.805Z,34.56
2019-03-24T07:36:53.576Z,33.94
2019-03-24T07:39:42.006Z,33.79
2019-03-24T07:42:30.246Z,33.82
2019-03-24T07:45:18.525Z,34.44
2019-03-24T07:48:06.819Z,34.64
2019-03-24T07:50:54.972Z,34.58
2019-03-24T07:53:42.907Z,35.08
2019-03-24T07:56:31.491Z,34.79
2019-03-24T07:59:20.254Z,34.05
2019-03-24T08:02:08.271Z,34.92
2019-03-24T08:04:56.364Z,35.14
2019-03-24T08:07:44.845Z,34.17
2019-03-24T08:10:32.972Z,34.56
2019-03-24T08:13:21.274Z,35.37
2019-03-24T08:16:09.259Z,35.39
2019-03-24T08:18:57.537Z,34.66
2019-03-24T08:21:45.501Z,34.46
2019-03-24T08:24:34.255Z,34.59
2019-03-24T08:27:22.455Z,33.83
2019-03-24T08:30:10.776Z,34.53
2019-03-24T08:32:59.058Z,34.50
2019-03-24T08:35:47.384Z,34.97
2019-03-24T08:38:35.835Z,34.65
2019-03-24T08:41:24.647Z,35.21
2019-03-24T08:44:12.921Z,34.96
2019-03-24T08:47:01.099Z,35.49
2019-03-24T08:49:49.963Z,35.31
2019-03-24T08:52:38.887Z,35.47
2019-03-24T08:55:27.109Z,35.29
2019-03-24T08:58:14.984Z,35.00
2019-03-24T09:01:03.418Z,35.47
2019-03-24T09:03:51.417Z,35.74
2019-03-24T09:06:39.807Z,36.33
2019-03-24T09:09:27.968Z,36.56
2019-03-24T09:12:16.178Z,37.09
2019-03-24T09:15:04.526Z,37.42
2019-03-24T09:17:52.788Z,37.57
2019-03-24T09:20:42.053Z,37.96
2019-03-24T09:23:30.463Z,37.83
2019-03-24T09:26:18.976Z,37.29
2019-03-24T09:29:07.240Z,38.38
2019-03-24T09:31:55.716Z,37.55
2019-03-24T09:34:44.174Z,36.86
2019-03-24T09:37:32.380Z,37.75
2019-03-24T09:40:27.205Z,37.60
2019-03-24T09:43:15.417Z,37.93
2019-03-24T09:46:03.450Z,37.44
2019-03-24T09:48:51.424Z,36.71
2019-03-24T09:51:39.657Z,36.50
2019-03-24T09:54:27.956Z,37.09
2019-03-24T09:57:16.523Z,36.67
2019-03-24T10:00:04.560Z,36.86
2019-03-24T10:02:52.814Z,36.92
2019-03-24T10:05:41.002Z,37.22
2019-03-24T10:08:28.873Z,36.01
2019-03-24T10:11:17.685Z,36.44
2019-03-24T10:14:05.900Z,35.74
2019-03-24T10:16:55.717Z,35.44
2019-03-24T10:19:44.100Z,35.42
2019-03-24T10:22:32.279Z,35.21
2019-03-24T10:25:20.404Z,34.42
2019-03-24T10:28:08.725Z,34.65
2019-03-24T10:30:57.123Z,35.66
2019-03-24T10:33:45.044Z,35.57
2019-03-24T10:36:33.481Z,34.20
2019-03-24T10:39:22.385Z,35.49
2019-03-24T10:42:10.623Z,34.80
2019-03-24T10:44:59.009Z,35.02
2019-03-24T10:47:47.172Z,34.93
2019-03-24T10:50:35.818Z,34.99
2019-03-24T10:53:24.273Z,35.12
2019-03-24T10:56:12.892Z,34.23
2019-03-24T10:59:00.778Z,34.14
2019-03-24T11:01:49.123Z,34.51
2019-03-24T11:04:37.330Z,34.46
2019-03-24T11:07:25.289Z,34.27
2019-03-24T11:10:13.847Z,33.58
2019-03-24T11:13:02.067Z,34.33
2019-03-24T11:15:51.060Z,33.64
2019-03-24T11:18:39.411Z,33.57
2019-03-24T11:21:27.712Z,33.80
2019-03-24T11:24:16.287Z,33.46
2019-03-24T11:27:04.714Z,33.60
2019-03-24T11:29:53.211Z,32.46
2019-03-24T11:32:41.928Z,32.18
2019-03-24T11:35:30.060Z,32.30
2019-03-24T11:38:18.446Z,32.65
2019-03-24T11:41:06.831Z,32.71
2019-03-24T11:43:55.029Z,33.04
2019-03-24T11:46:43.208Z,32.72
2019-03-24T11:49:31.433Z,32.31
2019-03-24T11:52:19.572Z,31.74
2019-03-24T11:55:08.332Z,31.74
2019-03-24T11:58:05.333Z,32.45
2019-03-24T12:00:46.231Z,31.77
2019-03-24T12:03:34.488Z,31.81
2019-03-24T12:06:22.871Z,31.72
2019-03-24T12:09:11.427Z,32.16
2019-03-24T12:11:59.820Z,31.70
2019-03-24T12:14:47.724Z,32.49
2019-03-24T12:17:36.406Z,31.35
2019-03-24T12:20:24.613Z,31.13
2019-03-24T12:23:12.689Z,30.96
2019-03-24T12:26:01.616Z,31.63
2019-03-24T12:28:49.897Z,31.53
2019-03-24T12:31:38.271Z,31.65
2019-03-24T12:34:26.550Z,31.31
2019-03-24T12:37:14.777Z,31.02
2019-03-24T12:40:03.163Z,31.33
2019-03-24T12:42:52.168Z,31.09
2019-03-24T12:45:40.112Z,31.13
2019-03-24T12:48:29.091Z,30.18
2019-03-24T12:51:17.914Z,30.66
2019-03-24T12:54:06.158Z,30.82
2019-03-24T12:56:54.633Z,31.04
2019-03-24T12:59:42.795Z,30.52
2019-03-24T13:02:31.383Z,30.50
2019-03-24T13:05:19.360Z,30.03
2019-03-24T13:08:15.768Z,30.38
2019-03-24T13:11:04.059Z,30.00
2019-03-24T13:13:52.720Z,30.27
2019-03-24T13:16:41.009Z,30.29
2019-03-24T13:19:29.691Z,29.73
2019-03-24T13:22:17.961Z,29.86
2019-03-24T13:25:06.707Z,29.40
2019-03-24T13:27:55.364Z,29.11
2019-03-24T13:30:43.561Z,29.55
2019-03-24T13:33:32.034Z,28.54
2019-03-24T13:36:20.059Z,29.00
2019-03-24T13:39:08.568Z,28.28
2019-03-24T13:41:56.754Z,28.41
2019-03-24T13:44:44.667Z,28.21
2019-03-24T13:47:33.179Z,28.15
2019-03-24T13:50:30.893Z,28.67
2019-03-24T13:53:11.613Z,28.23
2019-03-24T13:55:59.787Z,28.74
2019-03-24T13:58:48.557Z,27.97
2019-03-24T14:01:37.096Z,28.53
2019-03-24T14:04:25.783Z,28.60
2019-03-24T14:07:14.378Z,28.19
2019-03-24T14:10:02.670Z,28.59
2019-03-24T14:12:51.011Z,29.50
2019-03-24T14:15:39.265Z,28.89
2019-03-24T14:18:27.525Z,29.19
2019-03-24T14:21:16.138Z,29.21
2019-03-24T14:24:04.766Z,29.04
2019-03-24T14:26:52.832Z,29.31
2019-03-24T14:29:40.935Z,29.12
2019-03-24T14:32:29.461Z,29.25
2019-03-24T14:35:18.060Z,28.85
2019-03-24T14:38:06.852Z,28.67
2019-03-24T14:40:55.267Z,28.79
2019-03-24T14:43:43.915Z,29.33
2019-03-24T14:46:32.362Z,28.82
2019-03-24T14:49:20.877Z,29.00
2019-03-24T14:52:09.076Z,28.72
2019-03-24T14:54:57.063Z,28.43
2019-03-24T14:57:45.068Z,28.69
2019-03-24T15:00:38.057Z,29.32
2019-03-24T15:03:26.385Z,29.31
2019-03-24T15:06:14.741Z,29.05
2019-03-24T15:09:04.770Z,29.31
2019-03-24T15:11:52.903Z,29.09
2019-03-24T15:14:41.319Z,28.78
2019-03-24T15:17:29.529Z,29.22
2019-03-24T15:20:17.824Z,29.17
2019-03-24T15:23:06.124Z,29.09
2019-03-24T15:25:54.709Z,29.09
2019-03-24T15:28:42.848Z,29.88
2019-03-24T15:31:30.911Z,29.53
2019-03-24T15:34:19.012Z,29.87
2019-03-24T15:37:07.282Z,29.98
2019-03-24T15:39:55.809Z,29.66
2019-03-24T15:42:44.023Z,29.97
2019-03-24T15:45:32.321Z,30.07
2019-03-24T15:48:20.706Z,30.94
2019-03-24T15:51:16.819Z,30.66
2019-03-24T15:53:59.133Z,30.81
2019-03-24T15:56:47.267Z,31.35
2019-03-24T15:59:36.894Z,31.54
2019-03-24T16:02:25.060Z,31.32
2019-03-24T16:05:13.730Z,31.73
2019-03-24T16:08:02.515Z,31.93
2019-03-24T16:10:50.798Z,31.96
2019-03-24T16:13:38.987Z,32.18
2019-03-24T16:16:27.240Z,32.13
2019-03-24T16:19:15.587Z,32.55
2019-03-24T16:22:03.755Z,32.84
2019-03-24T16:24:51.993Z,32.80
2019-03-24T16:27:40.520Z,33.18
2019-03-24T16:30:28.692Z,32.88
2019-03-24T16:33:16.813Z,32.10
2019-03-24T16:36:05.086Z,32.65
2019-03-24T16:39:03.153Z,32.33
2019-03-24T16:41:43.900Z,32.50
2019-03-24T16:44:32.266Z,32.34
2019-03-24T16:47:20.696Z,32.03
2019-03-24T16:50:09.343Z,31.70
2019-03-24T16:52:57.836Z,31.02
2019-03-24T16:55:46.260Z,31.04
2019-03-24T16:58:34.924Z,31.12
2019-03-24T17:01:23.768Z,31.63
2019-03-24T17:04:12.311Z,31.83
2019-03-24T17:07:00.901Z,31.75
2019-03-24T17:09:48.792Z,31.54
2019-03-24T17:12:37.434Z,31.70
2019-03-24T17:15:25.294Z,31.64
2019-03-24T17:18:13.615Z,32.07
2019-03-24T17:21:01.845Z,31.77
2019-03-24T17:23:49.941Z,32.48
2019-03-24T17:26:37.977Z,32.26
2019-03-24T17:29:25.808Z,32.03
2019-03-24T17:32:14.454Z,31.76
2019-03-24T17:35:02.696Z,32.54
2019-03-24T17:37:51.230Z,32.24
2019-03-24T17:40:39.559Z,32.45
2019-03-24T17:43:27.503Z,32.74
2019-03-24T17:46:15.434Z,33.35
2019-03-24T17:49:04.017Z,33.46
2019-03-24T17:52:00.430Z,34.16
2019-03-24T17:54:41.805Z,34.20
2019-03-24T17:57:29.854Z,34.47
2019-03-24T18:00:22.399Z,34.60
2019-03-24T18:03:10.679Z,34.66
2019-03-24T18:05:59.699Z,35.08
2019-03-24T18:08:47.694Z,35.28
2019-03-24T18:11:35.927Z,35.50
2019-03-24T18:14:24.208Z,35.57
2019-03-24T18:17:12.680Z,35.67
2019-03-24T18:20:01.248Z,36.03
2019-03-24T18:22:49.557Z,35.92
2019-03-24T18:25:37.787Z,36.27
2019-03-24T18:28:26.379Z,36.44
2019-03-24T18:31:15.106Z,36.63
2019-03-24T18:34:03.550Z,36.92
2019-03-24T18:36:51.957Z,36.65
2019-03-24T18:39:40.391Z,37.12
2019-03-24T18:42:28.987Z,37.60
2019-03-24T18:45:17.718Z,37.60
2019-03-24T18:48:06.772Z,37.43
2019-03-24T18:50:55.577Z,37.10
2019-03-24T18:53:44.068Z,36.46
2019-03-24T18:56:32.462Z,37.13
2019-03-24T18:59:21.075Z,36.76
2019-03-24T19:02:09.866Z,37.17
2019-03-24T19:04:58.391Z,37.66
2019-03-24T19:07:47.240Z,38.10
2019-03-24T19:10:35.976Z,38.43
2019-03-24T19:13:24.731Z,38.91
2019-03-24T19:16:13.726Z,39.06
2019-03-24T19:19:02.516Z,39.33
2019-03-24T19:21:51.889Z,39.43
2019-03-24T19:24:40.743Z,39.49
2019-03-24T19:27:30.065Z,39.70
2019-03-24T19:30:22.828Z,39.99
2019-03-24T19:33:13.835Z,39.89
2019-03-24T19:36:05.421Z,40.31
2019-03-24T19:38:56.406Z,40.15
2019-03-24T19:41:47.400Z,40.61
2019-03-24T19:44:37.864Z,40.38
2019-03-24T19:47:31.294Z,40.70
2019-03-24T19:50:22.084Z,40.90
2019-03-24T19:53:12.707Z,41.01
2019-03-24T19:56:03.796Z,41.22
2019-03-24T19:58:54.785Z,41.40
2019-03-24T20:01:45.523Z,41.59
2019-03-24T20:04:36.086Z,41.76
2019-03-24T20:07:26.479Z,42.21
2019-03-24T20:10:17.039Z,42.81
2019-03-24T20:13:08.146Z,43.41
2019-03-24T20:15:59.502Z,43.51
2019-03-24T20:18:50.381Z,43.67
2019-03-24T20:21:41.225Z,43.94
2019-03-24T20:24:31.801Z,44.07
2019-03-24T20:27:22.571Z,44.20
2019-03-24T20:30:15.487Z,44.27
2019-03-24T20:33:06.086Z,44.48
2019-03-24T20:35:57.392Z,44.80
2019-03-24T20:38:50.521Z,45.25
2019-03-24T20:41:58.476Z,45.03
2019-03-24T20:44:48.887Z,44.97
2019-03-24T20:47:39.944Z,44.93
2019-03-24T20:50:31.020Z,45.23
2019-03-24T20:53:21.606Z,45.10
2019-03-24T20:56:12.470Z,44.96
2019-03-24T20:59:03.384Z,44.86
2019-03-24T21:01:54.697Z,45.13
2019-03-24T21:04:45.316Z,45.12
2019-03-24T21:07:35.672Z,45.33
2019-03-24T21:10:25.701Z,45.30
2019-03-24T21:13:15.764Z,45.27
2019-03-24T21:16:05.278Z,45.46
2019-03-24T21:18:54.858Z,45.60
2019-03-24T21:21:46.829Z,45.46
2019-03-24T21:24:37.362Z,45.42
2019-03-24T21:27:26.163Z,45.38
2019-03-24T21:30:15.098Z,45.65
2019-03-24T21:33:03.511Z,46.02
2019-03-24T21:35:52.065Z,46.19
2019-03-24T21:38:40.321Z,46.57
2019-03-24T21:41:28.797Z,46.48
2019-03-24T21:44:17.393Z,46.77
2019-03-24T21:47:05.854Z,46.81
2019-03-24T21:49:54.105Z,46.89
2019-03-24T21:52:42.373Z,46.97
2019-03-24T21:55:30.983Z,47.35
2019-03-24T21:58:19.008Z,47.48
2019-03-24T22:01:07.350Z,47.75
2019-03-24T22:03:55.523Z,47.74
2019-03-24T22:06:44.238Z,47.88
2019-03-24T22:09:32.830Z,47.93
2019-03-24T22:12:21.234Z,48.53
2019-03-24T22:15:09.766Z,48.22
2019-03-24T22:17:58.219Z,48.62
2019-03-24T22:20:49.129Z,48.41
2019-03-24T22:23:36.113Z,48.12
2019-03-24T22:26:24.538Z,48.36
2019-03-24T22:29:12.476Z,48.33
2019-03-24T22:32:00.699Z,48.43
2019-03-24T22:34:48.912Z,48.43
2019-03-24T22:37:36.940Z,48.55
2019-03-24T22:40:25.532Z,48.45
2019-03-24T22:43:13.340Z,48.55
2019-03-24T22:46:01.589Z,48.80
2019-03-24T22:48:49.513Z,48.46
2019-03-24T22:51:38.115Z,48.22
2019-03-24T22:54:26.469Z,48.08
2019-03-24T22:57:14.796Z,48.43
2019-03-24T23:00:02.799Z,48.63
2019-03-24T23:02:50.928Z,48.50
2019-03-24T23:05:39.198Z,48.53
2019-03-24T23:08:27.644Z,48.01
2019-03-24T23:11:15.754Z,47.79
2019-03-24T23:14:04.414Z,47.99
2019-03-24T23:16:52.275Z,48.19
2019-03-24T23:19:40.958Z,48.02
2019-03-24T23:22:29.523Z,48.13
2019-03-24T23:25:17.776Z,48.18
2019-03-24T23:28:06.383Z,47.99
2019-03-24T23:30:54.913Z,48.01
2019-03-24T23:33:43.468Z,48.28
2019-03-24T23:36:31.662Z,48.31
2019-03-24T23:39:19.686Z,48.74
2019-03-24T23:42:07.805Z,49.28
2019-03-24T23:44:56.477Z,49.66
2019-03-24T23:47:44.827Z,49.09
2019-03-24T23:50:33.432Z,49.26
2019-03-24T23:53:21.840Z,49.90
2019-03-24T23:56:10.064Z,49.38
2019-03-24T23:58:58.698Z,49.66
